Nearby METAR Reports

 

KAVP - Avoca/Wilkes B., Pennsylvania, USA
Distance from station: N 16mi, 25km
Updated: 07/19/2019 2:54pm
Clear
Clear
 Wind from WSW
Wind: WSW 10 mph , 17 km/h
Temperature: 91°F , 33°C
Heat Index: 102°F , 39°C
Dew Point: 75°F , 24°C
Humidity: 59%
Barometer: 29.90 inHg , 1012.5 hPa
Clouds: Clear
Visibility: 10 miles , 16 km
2019/07/19 18:54 KAVP 191854Z 24009KT 10SM CLR 33/24 A2990 RMK AO2 SLP114 T03280244
KMPO - Mt. Pocono, Pennsylvania, USA
Distance from station: E 20mi, 33km
Updated: 07/19/2019 2:53pm
Partly cloudy
Partly cloudy
 Wind from W
Wind: W 14 mph , 22 km/h, Gust: 18 mph , 30 km/h
Temperature: 86°F , 30°C
Heat Index: 93°F , 34°C
Dew Point: 73°F , 23°C
Humidity: 66%
Barometer: 29.97 inHg , 1014.9 hPa
Clouds: Partly cloudy
Visibility: 10 miles , 16 km
Cloud details: Partly cloudy 3300 ft
2019/07/19 18:53 KMPO 191853Z AUTO 27012G16KT 10SM SCT033 30/23 A2997 RMK AO2 SLP131 T03000228
 
KABE - Allentown, Pennsylvania, USA
Distance from station: SSE 36mi, 58km
Updated: 07/19/2019 2:51pm
Partly cloudy
Partly cloudy
 Wind from WSW
Wind: WSW 13 mph , 20 km/h, Gust: 17 mph , 28 km/h
Temperature: 93°F , 34°C
Heat Index: 107°F , 42°C
Dew Point: 77°F , 25°C
Humidity: 59%
Barometer: 29.89 inHg , 1012.2 hPa
Clouds: Partly cloudy
Visibility: 10 miles , 16 km
Cloud details: Partly cloudy 3900 ft
Partly cloudy 5500 ft
2019/07/19 18:51 KABE 191851Z 25011G15KT 10SM SCT039 SCT055 34/25 A2989 RMK AO2 SLP116 T03390250
KXLL - Allentown Queen, Pennsylvania, USA
Distance from station: SSE 41mi, 65km
Updated: 07/19/2019 3:15pm
Clear
Clear
 Wind from WSW
Wind: WSW 7 mph , 11 km/h, Gust: 16 mph , 26 km/h
Temperature: 91°F , 33°C
Heat Index: 104°F , 40°C
Dew Point: 77°F , 25°C
Humidity: 63%
Barometer: 29.90 inHg , 1012.5 hPa
Clouds: Clear
Visibility: 10 miles , 16 km
2019/07/19 19:15 KXLL 191915Z AUTO 25006G14KT 10SM CLR 33/25 A2990 RMK AO2